sensor_id;sensor_type;location;lat;lon;timestamp;noise_LAeq;noise_LA_min;noise_LA_max;noise_LA01;noise_LA95
71628;Laerm;59477;52.374;9.916;2023-08-06T00:01:49;40.03;36.74;45.23;;
71628;Laerm;59477;52.374;9.916;2023-08-06T00:03:49;39.16;36.96;50.86;;
71628;Laerm;59477;52.374;9.916;2023-08-06T00:06:08;39.40;37.26;47.44;;
71628;Laerm;59477;52.374;9.916;2023-08-06T00:08:08;40.92;37.41;51.75;;
71628;Laerm;59477;52.374;9.916;2023-08-06T00:10:08;40.96;37.19;69.27;;
71628;Laerm;59477;52.374;9.916;2023-08-06T00:12:09;42.23;38.55;67.30;;
71628;Laerm;59477;52.374;9.916;2023-08-06T00:14:09;43.73;37.90;62.80;;
71628;Laerm;59477;52.374;9.916;2023-08-06T00:16:10;41.53;37.91;65.96;;
71628;Laerm;59477;52.374;9.916;2023-08-06T00:18:11;45.75;39.10;72.06;;
71628;Laerm;59477;52.374;9.916;2023-08-06T00:20:11;44.70;40.21;68.86;;
71628;Laerm;59477;52.374;9.916;2023-08-06T00:22:11;42.60;38.39;64.39;;
71628;Laerm;59477;52.374;9.916;2023-08-06T00:24:30;40.57;37.76;57.44;;
71628;Laerm;59477;52.374;9.916;2023-08-06T00:26:30;40.70;37.21;64.42;;
71628;Laerm;59477;52.374;9.916;2023-08-06T00:28:30;43.13;37.52;66.84;;
71628;Laerm;59477;52.374;9.916;2023-08-06T00:30:31;43.95;38.66;71.92;;
71628;Laerm;59477;52.374;9.916;2023-08-06T00:32:31;49.35;38.83;76.71;;
71628;Laerm;59477;52.374;9.916;2023-08-06T00:34:31;46.32;39.34;73.43;;
71628;Laerm;59477;52.374;9.916;2023-08-06T00:36:31;43.30;38.83;66.64;;
71628;Laerm;59477;52.374;9.916;2023-08-06T00:38:32;42.35;38.66;66.52;;
71628;Laerm;59477;52.374;9.916;2023-08-06T00:40:32;42.49;37.41;61.69;;
71628;Laerm;59477;52.374;9.916;2023-08-06T00:42:32;40.67;37.01;65.80;;
71628;Laerm;59477;52.374;9.916;2023-08-06T00:44:32;44.57;38.02;66.30;;
71628;Laerm;59477;52.374;9.916;2023-08-06T00:46:33;39.35;36.83;54.67;;
71628;Laerm;59477;52.374;9.916;2023-08-06T00:48:33;38.69;36.71;50.11;;
71628;Laerm;59477;52.374;9.916;2023-08-06T00:50:33;40.41;36.95;60.91;;
71628;Laerm;59477;52.374;9.916;2023-08-06T00:52:34;45.63;36.53;55.22;;
71628;Laerm;59477;52.374;9.916;2023-08-06T00:54:35;38.12;36.49;42.96;;
71628;Laerm;59477;52.374;9.916;2023-08-06T00:56:36;38.38;36.32;59.69;;
71628;Laerm;59477;52.374;9.916;2023-08-06T00:58:36;44.53;36.35;54.03;;
71628;Laerm;59477;52.374;9.916;2023-08-06T01:00:37;39.77;36.59;50.89;;
71628;Laerm;59477;52.374;9.916;2023-08-06T01:02:41;47.82;37.77;55.72;;
71628;Laerm;59477;52.374;9.916;2023-08-06T01:04:41;39.43;37.11;44.27;;
71628;Laerm;59477;52.374;9.916;2023-08-06T01:06:48;39.08;36.78;43.55;;
71628;Laerm;59477;52.374;9.916;2023-08-06T01:08:54;38.23;36.44;42.60;;
71628;Laerm;59477;52.374;9.916;2023-08-06T01:15:20;43.24;37.13;53.93;;
71628;Laerm;59477;52.374;9.916;2023-08-06T01:17:22;40.77;37.32;46.79;;
71628;Laerm;59477;52.374;9.916;2023-08-06T01:19:23;40.17;36.85;47.66;;
71628;Laerm;59477;52.374;9.916;2023-08-06T01:21:24;40.64;36.23;51.44;;
71628;Laerm;59477;52.374;9.916;2023-08-06T01:23:24;45.79;36.75;56.42;;
71628;Laerm;59477;52.374;9.916;2023-08-06T01:25:29;43.98;36.61;52.60;;
71628;Laerm;59477;52.374;9.916;2023-08-06T01:29:34;40.43;36.46;46.97;;
71628;Laerm;59477;52.374;9.916;2023-08-06T01:31:37;38.28;36.12;43.81;;
71628;Laerm;59477;52.374;9.916;2023-08-06T01:33:38;45.93;36.42;59.84;;
71628;Laerm;59477;52.374;9.916;2023-08-06T01:35:43;45.28;36.56;54.22;;
71628;Laerm;59477;52.374;9.916;2023-08-06T01:37:44;40.33;36.54;47.92;;
71628;Laerm;59477;52.374;9.916;2023-08-06T01:39:45;38.32;36.36;43.17;;
71628;Laerm;59477;52.374;9.916;2023-08-06T01:41:46;38.23;36.12;42.52;;
71628;Laerm;59477;52.374;9.916;2023-08-06T01:43:47;46.88;36.84;57.46;;
71628;Laerm;59477;52.374;9.916;2023-08-06T01:45:47;39.62;36.72;47.65;;
71628;Laerm;59477;52.374;9.916;2023-08-06T01:47:47;44.16;36.67;57.33;;
71628;Laerm;59477;52.374;9.916;2023-08-06T01:49:47;38.67;36.35;43.73;;
71628;Laerm;59477;52.374;9.916;2023-08-06T01:51:47;37.83;36.09;42.77;;
71628;Laerm;59477;52.374;9.916;2023-08-06T01:53:48;38.68;36.24;47.01;;
71628;Laerm;59477;52.374;9.916;2023-08-06T01:55:51;40.97;36.53;50.92;;
71628;Laerm;59477;52.374;9.916;2023-08-06T01:57:51;39.28;37.21;47.99;;
71628;Laerm;59477;52.374;9.916;2023-08-06T02:02:55;41.79;37.21;51.32;;
71628;Laerm;59477;52.374;9.916;2023-08-06T02:05:14;42.10;37.00;51.40;;
71628;Laerm;59477;52.374;9.916;2023-08-06T02:07:33;43.56;37.31;51.24;;
71628;Laerm;59477;52.374;9.916;2023-08-06T02:09:53;39.23;37.26;47.52;;
71628;Laerm;59477;52.374;9.916;2023-08-06T02:12:12;39.40;37.39;44.32;;
71628;Laerm;59477;52.374;9.916;2023-08-06T02:14:31;40.13;37.18;46.35;;
71628;Laerm;59477;52.374;9.916;2023-08-06T02:16:50;39.90;37.02;45.95;;
71628;Laerm;59477;52.374;9.916;2023-08-06T02:19:09;38.54;36.47;50.11;;
71628;Laerm;59477;52.374;9.916;2023-08-06T02:21:27;39.30;36.11;46.67;;
71628;Laerm;59477;52.374;9.916;2023-08-06T02:23:47;38.02;36.34;43.00;;
71628;Laerm;59477;52.374;9.916;2023-08-06T02:26:06;37.98;36.17;43.41;;
71628;Laerm;59477;52.374;9.916;2023-08-06T02:28:24;38.22;36.33;43.21;;
71628;Laerm;59477;52.374;9.916;2023-08-06T02:30:50;39.87;36.74;48.04;;
71628;Laerm;59477;52.374;9.916;2023-08-06T02:33:09;38.31;36.31;43.76;;
71628;Laerm;59477;52.374;9.916;2023-08-06T02:35:28;37.87;36.16;43.31;;
71628;Laerm;59477;52.374;9.916;2023-08-06T02:37:47;38.05;35.96;42.98;;
71628;Laerm;59477;52.374;9.916;2023-08-06T02:40:06;42.41;36.57;50.95;;
71628;Laerm;59477;52.374;9.916;2023-08-06T02:42:08;38.80;36.61;44.43;;
71628;Laerm;59477;52.374;9.916;2023-08-06T02:44:08;39.07;36.44;44.67;;
71628;Laerm;59477;52.374;9.916;2023-08-06T02:46:08;39.18;36.70;44.48;;
71628;Laerm;59477;52.374;9.916;2023-08-06T02:48:27;40.72;36.26;48.32;;
71628;Laerm;59477;52.374;9.916;2023-08-06T02:50:46;40.35;37.15;45.66;;
71628;Laerm;59477;52.374;9.916;2023-08-06T02:52:46;41.02;36.84;47.27;;
71628;Laerm;59477;52.374;9.916;2023-08-06T02:55:06;39.22;36.35;46.17;;
71628;Laerm;59477;52.374;9.916;2023-08-06T02:57:25;40.04;35.93;47.55;;
71628;Laerm;59477;52.374;9.916;2023-08-06T02:59:44;39.54;36.30;45.50;;
71628;Laerm;59477;52.374;9.916;2023-08-06T03:02:03;39.48;36.56;50.52;;
71628;Laerm;59477;52.374;9.916;2023-08-06T03:04:22;40.00;36.93;47.76;;
71628;Laerm;59477;52.374;9.916;2023-08-06T03:06:22;38.31;36.07;47.31;;
71628;Laerm;59477;52.374;9.916;2023-08-06T03:08:23;41.82;36.46;70.13;;
71628;Laerm;59477;52.374;9.916;2023-08-06T03:10:41;40.33;36.35;65.27;;
71628;Laerm;59477;52.374;9.916;2023-08-06T03:13:00;38.27;36.23;43.75;;
71628;Laerm;59477;52.374;9.916;2023-08-06T03:15:03;39.39;36.89;44.35;;
71628;Laerm;59477;52.374;9.916;2023-08-06T03:17:03;40.12;36.67;47.41;;
71628;Laerm;59477;52.374;9.916;2023-08-06T03:19:04;39.24;36.47;45.21;;
71628;Laerm;59477;52.374;9.916;2023-08-06T03:21:04;38.86;36.80;43.59;;
71628;Laerm;59477;52.374;9.916;2023-08-06T03:23:23;39.17;36.57;44.12;;
71628;Laerm;59477;52.374;9.916;2023-08-06T03:25:42;38.77;36.68;41.80;;
71628;Laerm;59477;52.374;9.916;2023-08-06T03:28:01;39.04;36.09;44.25;;
71628;Laerm;59477;52.374;9.916;2023-08-06T03:30:20;39.60;36.54;55.17;;
71628;Laerm;59477;52.374;9.916;2023-08-06T03:32:39;38.68;36.49;45.29;;
71628;Laerm;59477;52.374;9.916;2023-08-06T03:34:58;39.05;36.67;44.32;;
71628;Laerm;59477;52.374;9.916;2023-08-06T03:37:17;38.81;36.61;52.85;;
71628;Laerm;59477;52.374;9.916;2023-08-06T03:39:36;38.65;36.51;46.56;;
71628;Laerm;59477;52.374;9.916;2023-08-06T03:41:36;43.73;36.91;52.24;;
71628;Laerm;59477;52.374;9.916;2023-08-06T03:43:36;39.95;36.87;48.37;;
71628;Laerm;59477;52.374;9.916;2023-08-06T03:45:55;39.60;36.77;46.67;;
71628;Laerm;59477;52.374;9.916;2023-08-06T03:47:55;40.31;37.17;47.44;;
71628;Laerm;59477;52.374;9.916;2023-08-06T03:49:55;39.16;36.56;44.09;;
71628;Laerm;59477;52.374;9.916;2023-08-06T03:52:14;39.11;36.58;44.35;;
71628;Laerm;59477;52.374;9.916;2023-08-06T03:54:14;38.91;36.51;45.35;;
71628;Laerm;59477;52.374;9.916;2023-08-06T03:56:33;38.77;36.56;51.34;;
71628;Laerm;59477;52.374;9.916;2023-08-06T03:58:33;41.77;36.86;49.51;;
71628;Laerm;59477;52.374;9.916;2023-08-06T04:00:33;44.78;37.30;52.05;;
71628;Laerm;59477;52.374;9.916;2023-08-06T04:02:34;48.01;38.06;59.62;;
71628;Laerm;59477;52.374;9.916;2023-08-06T04:04:34;41.06;36.65;50.89;;
71628;Laerm;59477;52.374;9.916;2023-08-06T04:06:34;41.93;36.89;53.40;;
71628;Laerm;59477;52.374;9.916;2023-08-06T04:08:34;43.69;36.81;56.32;;
71628;Laerm;59477;52.374;9.916;2023-08-06T04:10:35;38.83;36.46;54.35;;
71628;Laerm;59477;52.374;9.916;2023-08-06T04:12:35;41.98;36.67;50.18;;
71628;Laerm;59477;52.374;9.916;2023-08-06T04:14:39;40.78;36.96;51.87;;
71628;Laerm;59477;52.374;9.916;2023-08-06T04:16:58;41.11;36.68;54.64;;
71628;Laerm;59477;52.374;9.916;2023-08-06T04:18:58;40.36;36.72;49.26;;
71628;Laerm;59477;52.374;9.916;2023-08-06T04:20:58;40.86;37.27;48.79;;
71628;Laerm;59477;52.374;9.916;2023-08-06T04:22:59;40.10;36.48;56.17;;
71628;Laerm;59477;52.374;9.916;2023-08-06T04:24:59;39.04;36.45;52.90;;
71628;Laerm;59477;52.374;9.916;2023-08-06T04:26:59;40.11;37.01;50.84;;
71628;Laerm;59477;52.374;9.916;2023-08-06T04:28:59;41.69;36.92;63.42;;
71628;Laerm;59477;52.374;9.916;2023-08-06T04:31:00;40.58;36.94;48.35;;
71628;Laerm;59477;52.374;9.916;2023-08-06T04:33:18;41.30;36.46;51.59;;
71628;Laerm;59477;52.374;9.916;2023-08-06T04:35:19;41.40;37.09;51.27;;
71628;Laerm;59477;52.374;9.916;2023-08-06T04:37:19;42.56;37.55;51.43;;
71628;Laerm;59477;52.374;9.916;2023-08-06T04:39:19;41.74;37.89;52.00;;
71628;Laerm;59477;52.374;9.916;2023-08-06T04:41:20;41.55;37.34;49.31;;
71628;Laerm;59477;52.374;9.916;2023-08-06T04:43:20;39.90;36.88;45.56;;
71628;Laerm;59477;52.374;9.916;2023-08-06T04:45:20;40.16;36.86;47.17;;
71628;Laerm;59477;52.374;9.916;2023-08-06T04:47:20;39.57;37.06;47.42;;
71628;Laerm;59477;52.374;9.916;2023-08-06T04:49:21;41.70;37.09;51.73;;
71628;Laerm;59477;52.374;9.916;2023-08-06T04:51:39;41.77;37.37;50.61;;
71628;Laerm;59477;52.374;9.916;2023-08-06T04:53:59;42.03;37.32;52.15;;
71628;Laerm;59477;52.374;9.916;2023-08-06T04:55:59;41.38;36.67;48.70;;
71628;Laerm;59477;52.374;9.916;2023-08-06T04:57:59;41.82;37.54;48.06;;
71628;Laerm;59477;52.374;9.916;2023-08-06T04:59:59;40.47;36.56;53.66;;
71628;Laerm;59477;52.374;9.916;2023-08-06T05:02:00;39.33;36.60;46.44;;
71628;Laerm;59477;52.374;9.916;2023-08-06T05:04:00;40.77;37.06;47.29;;
71628;Laerm;59477;52.374;9.916;2023-08-06T05:06:00;39.19;37.14;44.20;;
71628;Laerm;59477;52.374;9.916;2023-08-06T05:08:19;41.17;36.96;50.63;;
71628;Laerm;59477;52.374;9.916;2023-08-06T05:10:38;54.90;37.97;66.25;;
71628;Laerm;59477;52.374;9.916;2023-08-06T05:12:38;41.22;37.23;48.85;;
71628;Laerm;59477;52.374;9.916;2023-08-06T05:14:38;40.00;37.03;47.92;;
71628;Laerm;59477;52.374;9.916;2023-08-06T05:16:57;40.97;37.10;48.16;;
71628;Laerm;59477;52.374;9.916;2023-08-06T05:18:57;44.26;37.14;54.48;;
71628;Laerm;59477;52.374;9.916;2023-08-06T05:20:58;39.37;37.51;46.79;;
71628;Laerm;59477;52.374;9.916;2023-08-06T05:23:17;39.46;37.50;43.96;;
71628;Laerm;59477;52.374;9.916;2023-08-06T05:25:17;39.32;37.12;45.43;;
71628;Laerm;59477;52.374;9.916;2023-08-06T05:27:17;39.79;36.94;56.51;;
71628;Laerm;59477;52.374;9.916;2023-08-06T05:29:37;40.23;37.68;54.76;;
71628;Laerm;59477;52.374;9.916;2023-08-06T05:31:38;40.34;37.53;50.25;;
71628;Laerm;59477;52.374;9.916;2023-08-06T05:33:38;38.72;36.69;42.17;;
71628;Laerm;59477;52.374;9.916;2023-08-06T05:35:40;39.68;37.23;49.09;;
71628;Laerm;59477;52.374;9.916;2023-08-06T05:37:59;38.85;36.94;40.80;;
71628;Laerm;59477;52.374;9.916;2023-08-06T05:40:18;39.82;37.16;48.17;;
71628;Laerm;59477;52.374;9.916;2023-08-06T05:42:18;43.99;37.86;59.98;;
71628;Laerm;59477;52.374;9.916;2023-08-06T05:44:37;40.63;37.43;54.53;;
71628;Laerm;59477;52.374;9.916;2023-08-06T05:46:55;41.04;37.76;58.07;;
71628;Laerm;59477;52.374;9.916;2023-08-06T05:48:56;40.63;37.31;54.02;;
71628;Laerm;59477;52.374;9.916;2023-08-06T05:50:56;41.33;37.36;50.09;;
71628;Laerm;59477;52.374;9.916;2023-08-06T05:52:56;40.74;37.48;46.46;;
71628;Laerm;59477;52.374;9.916;2023-08-06T05:55:15;40.27;37.39;47.66;;
71628;Laerm;59477;52.374;9.916;2023-08-06T05:57:15;40.05;37.44;44.96;;
71628;Laerm;59477;52.374;9.916;2023-08-06T05:59:34;41.74;37.34;55.75;;
71628;Laerm;59477;52.374;9.916;2023-08-06T06:01:35;50.83;37.34;63.66;;
71628;Laerm;59477;52.374;9.916;2023-08-06T06:03:35;52.60;37.10;65.21;;
71628;Laerm;59477;52.374;9.916;2023-08-06T06:05:54;46.81;37.26;75.62;;
71628;Laerm;59477;52.374;9.916;2023-08-06T06:08:13;39.56;37.17;48.84;;
71628;Laerm;59477;52.374;9.916;2023-08-06T06:10:32;40.50;37.21;62.21;;
71628;Laerm;59477;52.374;9.916;2023-08-06T06:12:51;42.03;36.65;62.06;;
71628;Laerm;59477;52.374;9.916;2023-08-06T06:14:51;42.92;37.27;52.95;;
71628;Laerm;59477;52.374;9.916;2023-08-06T06:17:10;39.70;36.64;53.63;;
71628;Laerm;59477;52.374;9.916;2023-08-06T06:19:29;42.12;36.99;51.55;;
71628;Laerm;59477;52.374;9.916;2023-08-06T06:21:49;42.58;36.75;69.59;;
71628;Laerm;59477;52.374;9.916;2023-08-06T06:23:51;40.24;36.41;51.93;;
71628;Laerm;59477;52.374;9.916;2023-08-06T06:26:10;39.93;36.69;48.60;;
71628;Laerm;59477;52.374;9.916;2023-08-06T06:28:10;39.13;35.88;54.02;;
71628;Laerm;59477;52.374;9.916;2023-08-06T06:30:11;39.07;35.85;50.81;;
71628;Laerm;59477;52.374;9.916;2023-08-06T06:32:12;38.17;35.57;49.84;;
71628;Laerm;59477;52.374;9.916;2023-08-06T06:34:12;38.84;35.21;49.64;;
71628;Laerm;59477;52.374;9.916;2023-08-06T06:36:12;41.53;35.96;66.27;;
71628;Laerm;59477;52.374;9.916;2023-08-06T06:38:13;44.88;35.49;61.50;;
71628;Laerm;59477;52.374;9.916;2023-08-06T06:40:32;52.34;36.51;64.00;;
71628;Laerm;59477;52.374;9.916;2023-08-06T06:42:51;37.92;34.88;55.68;;
71628;Laerm;59477;52.374;9.916;2023-08-06T06:45:10;39.75;34.88;53.78;;
71628;Laerm;59477;52.374;9.916;2023-08-06T06:47:29;38.02;34.59;51.58;;
71628;Laerm;59477;52.374;9.916;2023-08-06T06:49:48;41.57;34.88;62.79;;
71628;Laerm;59477;52.374;9.916;2023-08-06T06:52:07;42.66;34.85;62.42;;
71628;Laerm;59477;52.374;9.916;2023-08-06T06:54:26;38.41;34.14;60.86;;
71628;Laerm;59477;52.374;9.916;2023-08-06T06:56:26;38.15;33.33;59.04;;
71628;Laerm;59477;52.374;9.916;2023-08-06T06:58:45;39.57;31.91;48.07;;
71628;Laerm;59477;52.374;9.916;2023-08-06T07:01:04;41.05;31.75;52.00;;
71628;Laerm;59477;52.374;9.916;2023-08-06T07:03:05;38.89;32.47;47.35;;
71628;Laerm;59477;52.374;9.916;2023-08-06T07:05:05;43.46;31.55;61.52;;
71628;Laerm;59477;52.374;9.916;2023-08-06T07:07:06;52.24;33.16;63.85;;
71628;Laerm;59477;52.374;9.916;2023-08-06T07:09:25;35.23;30.88;50.07;;
71628;Laerm;59477;52.374;9.916;2023-08-06T07:11:26;34.34;30.12;48.94;;
71628;Laerm;59477;52.374;9.916;2023-08-06T07:13:45;40.84;31.18;65.40;;
71628;Laerm;59477;52.374;9.916;2023-08-06T07:15:45;36.90;32.08;44.33;;
71628;Laerm;59477;52.374;9.916;2023-08-06T07:17:45;35.81;31.58;44.87;;
71628;Laerm;59477;52.374;9.916;2023-08-06T07:20:04;35.82;31.35;45.11;;
71628;Laerm;59477;52.374;9.916;2023-08-06T07:22:06;39.88;30.92;47.71;;
71628;Laerm;59477;52.374;9.916;2023-08-06T07:24:25;35.15;30.90;52.44;;
71628;Laerm;59477;52.374;9.916;2023-08-06T07:26:26;37.19;30.68;50.18;;
71628;Laerm;59477;52.374;9.916;2023-08-06T07:28:45;47.33;32.80;57.80;;
71628;Laerm;59477;52.374;9.916;2023-08-06T07:31:04;39.55;32.74;50.55;;
71628;Laerm;59477;52.374;9.916;2023-08-06T07:33:26;43.71;31.63;54.01;;
71628;Laerm;59477;52.374;9.916;2023-08-06T07:35:45;42.60;31.67;54.93;;
71628;Laerm;59477;52.374;9.916;2023-08-06T07:37:45;44.93;31.86;54.72;;
71628;Laerm;59477;52.374;9.916;2023-08-06T07:39:45;41.31;32.70;54.01;;
71628;Laerm;59477;52.374;9.916;2023-08-06T07:41:45;47.97;30.84;66.73;;
71628;Laerm;59477;52.374;9.916;2023-08-06T07:43:46;38.71;30.78;53.16;;
71628;Laerm;59477;52.374;9.916;2023-08-06T07:45:46;44.56;31.52;58.36;;
71628;Laerm;59477;52.374;9.916;2023-08-06T07:47:46;43.03;31.76;55.54;;
71628;Laerm;59477;52.374;9.916;2023-08-06T07:50:05;36.12;30.71;44.64;;
71628;Laerm;59477;52.374;9.916;2023-08-06T07:52:24;44.64;31.24;70.22;;
71628;Laerm;59477;52.374;9.916;2023-08-06T07:54:43;37.53;31.20;52.41;;
71628;Laerm;59477;52.374;9.916;2023-08-06T07:57:02;38.98;31.95;56.83;;
71628;Laerm;59477;52.374;9.916;2023-08-06T07:59:03;37.72;29.82;49.87;;
71628;Laerm;59477;52.374;9.916;2023-08-06T08:01:21;39.28;32.14;59.93;;
71628;Laerm;59477;52.374;9.916;2023-08-06T08:03:40;37.73;32.30;53.80;;
71628;Laerm;59477;52.374;9.916;2023-08-06T08:05:41;39.69;32.56;62.55;;
71628;Laerm;59477;52.374;9.916;2023-08-06T08:08:00;43.88;31.97;62.28;;
71628;Laerm;59477;52.374;9.916;2023-08-06T08:10:19;35.83;31.05;44.65;;
71628;Laerm;59477;52.374;9.916;2023-08-06T08:12:38;40.56;31.96;53.83;;
71628;Laerm;59477;52.374;9.916;2023-08-06T08:14:39;40.17;32.00;54.53;;
71628;Laerm;59477;52.374;9.916;2023-08-06T08:16:57;61.26;32.66;86.80;;
71628;Laerm;59477;52.374;9.916;2023-08-06T08:19:20;36.07;31.77;45.24;;
71628;Laerm;59477;52.374;9.916;2023-08-06T08:21:39;35.47;31.30;51.36;;
71628;Laerm;59477;52.374;9.916;2023-08-06T08:23:59;41.62;32.98;54.37;;
71628;Laerm;59477;52.374;9.916;2023-08-06T08:26:18;43.62;33.14;64.91;;
71628;Laerm;59477;52.374;9.916;2023-08-06T08:28:19;37.69;31.09;48.67;;
71628;Laerm;59477;52.374;9.916;2023-08-06T08:30:40;37.96;31.88;56.39;;
71628;Laerm;59477;52.374;9.916;2023-08-06T08:32:40;35.39;31.48;48.54;;
71628;Laerm;59477;52.374;9.916;2023-08-06T08:34:59;55.36;32.17;85.77;;
71628;Laerm;59477;52.374;9.916;2023-08-06T08:36:59;63.13;33.14;86.56;;
71628;Laerm;59477;52.374;9.916;2023-08-06T08:39:18;36.29;31.94;56.70;;
71628;Laerm;59477;52.374;9.916;2023-08-06T08:41:18;35.89;32.57;47.69;;
71628;Laerm;59477;52.374;9.916;2023-08-06T08:43:22;44.66;32.87;53.21;;
71628;Laerm;59477;52.374;9.916;2023-08-06T08:45:42;40.33;33.28;54.96;;
71628;Laerm;59477;52.374;9.916;2023-08-06T08:48:00;52.27;32.08;68.77;;
71628;Laerm;59477;52.374;9.916;2023-08-06T08:50:19;53.66;33.75;71.52;;
71628;Laerm;59477;52.374;9.916;2023-08-06T08:52:39;37.63;33.17;47.63;;
71628;Laerm;59477;52.374;9.916;2023-08-06T08:54:42;36.91;32.11;48.62;;
71628;Laerm;59477;52.374;9.916;2023-08-06T08:57:02;39.74;33.48;48.63;;
71628;Laerm;59477;52.374;9.916;2023-08-06T08:59:02;41.10;34.20;48.24;;
71628;Laerm;59477;52.374;9.916;2023-08-06T09:01:02;43.84;33.56;59.82;;
71628;Laerm;59477;52.374;9.916;2023-08-06T09:03:22;39.79;33.66;50.34;;
71628;Laerm;59477;52.374;9.916;2023-08-06T09:05:42;41.24;35.03;54.19;;
71628;Laerm;59477;52.374;9.916;2023-08-06T09:08:03;37.25;33.16;48.46;;
71628;Laerm;59477;52.374;9.916;2023-08-06T09:10:03;39.37;34.80;44.12;;
71628;Laerm;59477;52.374;9.916;2023-08-06T09:12:07;45.81;34.79;55.63;;
71628;Laerm;59477;52.374;9.916;2023-08-06T09:14:29;40.17;34.50;50.40;;
71628;Laerm;59477;52.374;9.916;2023-08-06T09:16:29;39.49;32.90;51.76;;
71628;Laerm;59477;52.374;9.916;2023-08-06T09:18:48;37.39;33.80;46.10;;
71628;Laerm;59477;52.374;9.916;2023-08-06T09:21:06;40.04;33.67;54.29;;
71628;Laerm;59477;52.374;9.916;2023-08-06T09:23:31;41.45;33.74;54.54;;
71628;Laerm;59477;52.374;9.916;2023-08-06T09:25:33;36.93;32.46;50.32;;
71628;Laerm;59477;52.374;9.916;2023-08-06T09:27:52;38.91;33.32;61.19;;
71628;Laerm;59477;52.374;9.916;2023-08-06T09:30:11;37.61;33.07;52.58;;
71628;Laerm;59477;52.374;9.916;2023-08-06T09:32:12;37.78;32.71;52.16;;
71628;Laerm;59477;52.374;9.916;2023-08-06T09:34:32;43.95;34.49;52.23;;
71628;Laerm;59477;52.374;9.916;2023-08-06T09:36:32;39.29;34.05;58.19;;
71628;Laerm;59477;52.374;9.916;2023-08-06T09:38:51;53.48;39.85;62.69;;
71628;Laerm;59477;52.374;9.916;2023-08-06T09:41:10;43.54;33.54;62.04;;
71628;Laerm;59477;52.374;9.916;2023-08-06T09:43:11;37.47;33.68;50.43;;
71628;Laerm;59477;52.374;9.916;2023-08-06T09:45:11;43.96;33.27;57.98;;
71628;Laerm;59477;52.374;9.916;2023-08-06T09:47:30;40.42;33.23;57.69;;
71628;Laerm;59477;52.374;9.916;2023-08-06T09:49:49;46.28;37.13;58.92;;
71628;Laerm;59477;52.374;9.916;2023-08-06T09:52:10;40.37;33.14;50.04;;
71628;Laerm;59477;52.374;9.916;2023-08-06T09:54:14;46.48;33.24;64.30;;
71628;Laerm;59477;52.374;9.916;2023-08-06T09:56:34;37.52;33.30;49.49;;
71628;Laerm;59477;52.374;9.916;2023-08-06T09:58:40;39.05;33.81;49.32;;
71628;Laerm;59477;52.374;9.916;2023-08-06T10:00:59;39.33;32.56;54.09;;
71628;Laerm;59477;52.374;9.916;2023-08-06T10:03:00;46.02;33.96;54.99;;
71628;Laerm;59477;52.374;9.916;2023-08-06T10:05:00;42.87;33.05;53.23;;
71628;Laerm;59477;52.374;9.916;2023-08-06T10:07:20;44.36;33.60;65.46;;
71628;Laerm;59477;52.374;9.916;2023-08-06T10:09:40;36.40;32.77;51.07;;
71628;Laerm;59477;52.374;9.916;2023-08-06T10:12:00;35.13;31.96;47.98;;
71628;Laerm;59477;52.374;9.916;2023-08-06T10:14:26;38.59;31.88;56.62;;
71628;Laerm;59477;52.374;9.916;2023-08-06T10:16:45;42.45;33.69;57.87;;
71628;Laerm;59477;52.374;9.916;2023-08-06T10:19:07;42.32;32.92;51.65;;
71628;Laerm;59477;52.374;9.916;2023-08-06T10:21:27;36.91;32.88;48.27;;
71628;Laerm;59477;52.374;9.916;2023-08-06T10:23:33;35.88;33.17;43.78;;
71628;Laerm;59477;52.374;9.916;2023-08-06T10:25:53;36.39;33.38;48.83;;
71628;Laerm;59477;52.374;9.916;2023-08-06T10:28:12;44.29;35.03;61.21;;
71628;Laerm;59477;52.374;9.916;2023-08-06T10:32:46;41.76;34.98;53.59;;
71628;Laerm;59477;52.374;9.916;2023-08-06T10:34:57;37.62;34.47;45.37;;
71628;Laerm;59477;52.374;9.916;2023-08-06T10:37:19;40.44;34.75;49.85;;
71628;Laerm;59477;52.374;9.916;2023-08-06T10:39:42;38.81;34.81;52.40;;
71628;Laerm;59477;52.374;9.916;2023-08-06T10:41:47;49.93;37.68;59.84;;
71628;Laerm;59477;52.374;9.916;2023-08-06T10:44:06;39.01;35.55;44.92;;
71628;Laerm;59477;52.374;9.916;2023-08-06T10:46:29;40.22;35.17;51.49;;
71628;Laerm;59477;52.374;9.916;2023-08-06T10:48:47;39.17;34.99;45.61;;
71628;Laerm;59477;52.374;9.916;2023-08-06T10:51:10;40.51;35.96;51.97;;
71628;Laerm;59477;52.374;9.916;2023-08-06T10:53:29;43.77;36.39;53.68;;
71628;Laerm;59477;52.374;9.916;2023-08-06T10:55:30;39.49;35.34;51.56;;
71628;Laerm;59477;52.374;9.916;2023-08-06T10:57:30;42.51;36.99;53.43;;
71628;Laerm;59477;52.374;9.916;2023-08-06T10:59:30;40.61;36.16;48.85;;
71628;Laerm;59477;52.374;9.916;2023-08-06T11:01:31;41.22;35.60;53.27;;
71628;Laerm;59477;52.374;9.916;2023-08-06T11:03:51;42.73;35.66;57.95;;
71628;Laerm;59477;52.374;9.916;2023-08-06T11:05:53;41.34;35.89;54.03;;
71628;Laerm;59477;52.374;9.916;2023-08-06T11:08:12;45.08;36.68;58.59;;
71628;Laerm;59477;52.374;9.916;2023-08-06T11:10:12;46.93;40.72;54.42;;
71628;Laerm;59477;52.374;9.916;2023-08-06T11:12:32;41.43;36.78;50.65;;
71628;Laerm;59477;52.374;9.916;2023-08-06T11:14:32;41.27;36.21;48.29;;
71628;Laerm;59477;52.374;9.916;2023-08-06T11:16:51;43.76;35.96;56.03;;
71628;Laerm;59477;52.374;9.916;2023-08-06T11:19:10;45.99;35.81;58.59;;
71628;Laerm;59477;52.374;9.916;2023-08-06T11:21:10;39.13;34.82;47.54;;
71628;Laerm;59477;52.374;9.916;2023-08-06T11:23:14;38.46;33.86;50.44;;
71628;Laerm;59477;52.374;9.916;2023-08-06T11:25:36;38.53;34.14;44.55;;
71628;Laerm;59477;52.374;9.916;2023-08-06T11:27:36;37.97;34.05;46.30;;
71628;Laerm;59477;52.374;9.916;2023-08-06T11:29:37;37.67;34.40;43.01;;
71628;Laerm;59477;52.374;9.916;2023-08-06T11:32:03;37.93;34.97;42.83;;
71628;Laerm;59477;52.374;9.916;2023-08-06T11:34:21;38.94;35.39;50.50;;
71628;Laerm;59477;52.374;9.916;2023-08-06T11:36:40;43.20;36.80;54.44;;
71628;Laerm;59477;52.374;9.916;2023-08-06T11:38:41;48.72;37.54;55.56;;
71628;Laerm;59477;52.374;9.916;2023-08-06T11:40:41;46.18;37.55;59.81;;
71628;Laerm;59477;52.374;9.916;2023-08-06T11:42:43;40.92;36.40;50.44;;
71628;Laerm;59477;52.374;9.916;2023-08-06T11:44:43;41.14;35.71;54.57;;
71628;Laerm;59477;52.374;9.916;2023-08-06T11:46:50;42.15;37.33;49.63;;
71628;Laerm;59477;52.374;9.916;2023-08-06T11:48:58;46.03;36.77;56.89;;
71628;Laerm;59477;52.374;9.916;2023-08-06T11:51:17;45.01;35.06;60.08;;
71628;Laerm;59477;52.374;9.916;2023-08-06T11:53:17;43.09;35.40;53.99;;
71628;Laerm;59477;52.374;9.916;2023-08-06T11:55:36;40.45;34.75;51.18;;
71628;Laerm;59477;52.374;9.916;2023-08-06T11:57:55;40.89;34.98;57.96;;
71628;Laerm;59477;52.374;9.916;2023-08-06T11:59:55;40.68;36.24;54.16;;
71628;Laerm;59477;52.374;9.916;2023-08-06T12:01:56;41.95;34.24;53.86;;
71628;Laerm;59477;52.374;9.916;2023-08-06T12:03:59;38.88;34.24;47.35;;
71628;Laerm;59477;52.374;9.916;2023-08-06T12:05:59;41.73;34.90;51.55;;
71628;Laerm;59477;52.374;9.916;2023-08-06T12:08:00;41.29;36.40;49.82;;
71628;Laerm;59477;52.374;9.916;2023-08-06T12:10:01;43.67;36.80;61.08;;
71628;Laerm;59477;52.374;9.916;2023-08-06T12:12:20;43.73;35.65;66.61;;
71628;Laerm;59477;52.374;9.916;2023-08-06T12:14:20;40.40;36.98;52.63;;